Airfield :
LOGIN :

Register | Disclaimer

   EN    FR    IT 

 










Legend :    VFR   Marginal VFR   IFR   Intensive IFR   Very Intensive IFR
Visi :
Ceiling :
>= 8 km
>= 3000ft
5 to 8 km
1000 to 3000 ft
1500m to 5 km
500 to 1000 ft
800 to 1500m
200 to 500 ft
< 800m
< 200 ft
Symbols :   Thunderstorms  Fog  Heavy snow  Heavy precipitations  Wind > 20 kt
SIGMETs :     Misc.  Thunderstorms  Icing  Turbulence  Mountain Waves  Volcanic Ashes







- Airport Elevation : 18 ft
- IATA code : AJA
- Download approach charts


LFKJ - Ajaccio

CURRENT METAR :
  • 280330Z AUTO 04004KT CAVOK 25/15 Q1006 TEMPO SHRA SCT020CB BKN060

EXPIRED METARs :
  • 280300Z AUTO VRB03KT CAVOK 24/15 Q1007 TEMPO SHRA SCT020CB BKN060
  • 280230Z AUTO 05003KT 020V110 CAVOK 24/15 Q1007 TEMPO SHRA SCT020CB BKN060
  • 280200Z AUTO 05004KT 350V120 CAVOK 23/15 Q1007 TEMPO SHRA SCT020CB BKN060
  • 280130Z AUTO 06004KT 030V090 CAVOK 24/15 Q1008 TEMPO SHRA SCT020CB BKN060
  • 280100Z AUTO 06006KT CAVOK 23/15 Q1007 NOSIG

TAF TAF LFKJ
Valid from the 28 at 03:00 until the 29 at 03:00 UTC


280200Z 2803/2903 06004KT CAVOK
BECMG 2803/2805 9999 SCT030 SCT060
BECMG 2807/2809 23010KT
PROB40
TEMPO 2803/2817 8000 SHRA SCT020CB BKN060
ATIS : +33 4 95 23 59 85
No reported NOTAMs for that airfield.
1 SIGMET reported for the Marseille FIR (LFMM) :
 
Embedded thunderstorms
LFMM SIGMET 3 VALID 280300/280500 LFPW
LFMM MARSEILLE FIR/UIR EMBD TS OBS WI N4115 E00800 - N3930 E00800 - N3930 E00545 TOP FL360 MOV E 30KT NC=



MET'MAP, your aeronautical weather chart ! - Copyright ORBIFLY December 2007 - Disclaimer

ORBIFLY MET'MAP TEAM :

Programming & Development : Alexandra Zaïnal
Concept & Development : Baudouin d'Aumeries
Co-Development & Prog : Marc-Olivier Méhu
Technical & hardware support : Manuel Goepfert

Contact : metmap@orbifly.com




SOURCES & CREDITS :

   NOAA